• Join FlightAware (Why Join?)
  • Login
  • US Flag 
10:09AM EDT


 

Airport Tracker/Info


-or-


 

Live Flight TrackerFlight Track Log ✈ N966QS ✈ 02-May-2013 ✈ KIAD - KAGS

Flight Track Log - Related Links

Times and Time Zones

All times are in EDT time to prevent confusion due to time zone crossing. See the N966QS flight status page for this flight to view local times or setup timezone preferences in your user account.

Time Position Orientation Groundspeed Altitude Reporting Facility
EDT Latitude Longitude Course Direction KTS MPH feet Rate Location/Type
11:53AM 38.9333 -77.5167 243° Southwest 218 251 2,600  Level Potomac TRACON
11:54AM 38.9000 -77.6000 243° Southwest 267 307 4,000 1,260 Climbing Potomac TRACON
11:55AM 38.8667 -77.6833 243° Southwest 268 308 5,200 1,380 Climbing Potomac TRACON
11:55AM 38.8344 -77.6942 195° South 267 307 5,900 1,320 Climbing Washington Center
11:56AM 38.7594 -77.6947 180° South 281 323 7,100 1,560 Climbing Washington Center
11:57AM 38.6869 -77.6689 164° South 281 323 9,100 1,920 Climbing Washington Center
11:58AM 38.6083 -77.6375 163° South 288 331 11,000 1,620 Climbing Washington Center
11:59AM 38.5211 -77.6111 167° South 342 394 12,400 1,800 Climbing Washington Center
12:00PM 38.4214 -77.5872 169° South 363 418 14,600 2,040 Climbing Washington Center
12:01PM 38.3328 -77.6564 211° Southwest 358 412 16,600 1,680 Climbing Washington Center
12:02PM 38.2642 -77.7681 232° Southwest 368 423 18,000 1,560 Climbing Washington Center
12:03PM 38.1911 -77.8797 230° Southwest 387 445 19,700 1,440 Climbing Washington Center
12:04PM 38.1136 -77.9961 230° Southwest 416 479 21,000 600 Climbing Washington Center
12:05PM 38.0300 -78.1172 229° Southwest 446 513 21,000  Level Washington Center
12:06PM 37.9481 -78.2436 231° Southwest 468 539 21,000 300 Level Washington Center
12:07PM 37.8639 -78.3669 229° Southwest 468 539 21,700 1,260 Climbing Washington Center
12:08PM 37.7797 -78.4872 229° Southwest 468 539 23,600 1,860 Climbing Washington Center
12:09PM 37.6953 -78.6072 228° Southwest 468 539 25,500 1,980 Climbing Washington Center
12:10PM 37.6194 -78.7197 230° Southwest 468 539 27,500 1,920 Climbing Washington Center
12:11PM 37.5328 -78.8392 228° Southwest 468 539 29,400 1,860 Climbing Washington Center
12:12PM 37.4458 -78.9636 229° Southwest 468 539 31,300 1,800 Climbing Washington Center
12:13PM 37.3567 -79.0931 229° Southwest 474 545 33,000 1,620 Climbing Washington Center
12:14PM 37.2631 -79.2219 228° Southwest 491 565 34,600 1,500 Climbing Washington Center
12:15PM 37.1653 -79.3475 226° Southwest 499 574 36,000 660 Climbing Washington Center
12:16PM 37.0567 -79.4853 225° Southwest 511 588 36,000  Level Washington Center
12:17PM 36.9567 -79.6078 224° Southwest 511 588 36,000  Level Washington Center
12:18PM 36.8608 -79.7300 226° Southwest 516 594 36,000  Level Washington Center
12:20PM 36.6925 -79.9328 224° Southwest 483 556 36,000  Level Atlanta Center
12:21PM 36.5983 -80.0489 225° Southwest 478 550 36,000  Level Atlanta Center
12:22PM 36.4958 -80.1753 225° Southwest 478 550 36,000 -60 Level Atlanta Center
12:23PM 36.4036 -80.2906 225° Southwest 478 550 35,900 -540 Descending Atlanta Center
12:24PM 36.2894 -80.3783 212° Southwest 478 550 35,000 -480 Descending Atlanta Center
12:25PM 36.1683 -80.4458 204° Southwest 478 550 35,000  Level Atlanta Center
12:26PM 36.0575 -80.5072 204° Southwest 478 550 35,000  Level Atlanta Center
12:27PM 35.9303 -80.5819 205° Southwest 478 550 35,000 -360 Level Atlanta Center
12:28PM 35.8092 -80.6511 205° Southwest 478 550 34,300 -960 Descending Atlanta Center
12:29PM 35.6839 -80.7175 203° Southwest 478 550 33,100 -1,260 Descending Atlanta Center
12:30PM 35.5667 -80.7836 205° Southwest 496 571 31,800 -1,380 Descending Atlanta Center
12:31PM 35.4392 -80.8550 205° Southwest 507 583 30,400 -1,200 Descending Atlanta Center
12:32PM 35.3117 -80.9261 204° Southwest 507 583 29,400 -1,080 Descending Atlanta Center
12:33PM 35.1839 -80.9944 204° Southwest 502 578 28,300 -1,080 Descending Atlanta Center
12:34PM 35.0461 -81.0756 206° Southwest 497 572 27,300 -1,020 Descending Atlanta Center
12:35PM 34.9225 -81.1358 202° Southwest 491 565 26,300 -1,080 Descending Atlanta Center
12:36PM 34.8008 -81.2056 205° Southwest 491 565 25,200 -1,080 Descending Atlanta Center
12:38PM 34.5944 -81.3189 204° Southwest 489 563 23,500 -1,080 Descending Jacksonville Center
12:39PM 34.4783 -81.3789 203° Southwest 472 543 22,400 -1,080 Descending Jacksonville Center
12:40PM 34.3600 -81.4436 204° Southwest 467 537 21,400 -1,020 Descending Jacksonville Center
12:41PM 34.2461 -81.5033 203° Southwest 461 531 20,400 -1,500 Descending Jacksonville Center
12:42PM 34.1300 -81.5656 204° Southwest 455 524 18,500 -1,920 Descending Jacksonville Center
12:44PM 33.9285 -81.6624 202° Southwest  Level FlightAware Approximate
12:51PM 33.3667 -81.9500 203° Southwest  Level FlightAware Approximate
12:52PM 33.3699 -81.9645 203° Southwest  Level Estimated
12:53PM 33.3699 -81.9645 203° Southwest  Level Estimated
12:54PM 33.3699 -81.9645 203° Southwest  Level Estimated
12:55PM 33.3699 -81.9645 203° Southwest  Level Estimated
12:56PM 33.3699 -81.9645 203° Southwest  Level Estimated
12:57PM 33.3699 -81.9645 203° Southwest  Level Estimated
12:58PM 33.3699 -81.9645 203° Southwest  Level Estimated